createdAt,value
2023-05-23T00:02:21.692Z,29.90
2023-05-23T00:04:58.364Z,32.53
2023-05-23T00:07:32.496Z,32.00
2023-05-23T00:10:05.234Z,38.47
2023-05-23T00:12:39.464Z,35.97
2023-05-23T00:15:13.606Z,39.63
2023-05-23T00:17:46.843Z,43.50
2023-05-23T00:20:19.443Z,35.97
2023-05-23T00:22:52.999Z,43.00
2023-05-23T00:25:25.756Z,39.27
2023-05-23T00:28:05.400Z,39.90
2023-05-23T00:30:38.027Z,42.50
2023-05-23T00:33:10.423Z,43.40
2023-05-23T00:35:46.763Z,43.50
2023-05-23T00:38:19.688Z,36.50
2023-05-23T00:40:51.902Z,43.83
2023-05-23T00:43:23.996Z,42.60
2023-05-23T00:45:58.187Z,48.50
2023-05-23T00:48:31.491Z,44.73
2023-05-23T00:51:03.767Z,42.67
2023-05-23T00:53:36.747Z,43.27
2023-05-23T00:56:09.390Z,45.60
2023-05-23T00:58:43.152Z,42.83
2023-05-23T01:01:17.301Z,46.17
2023-05-23T01:03:50.380Z,49.37
2023-05-23T01:06:22.660Z,47.60
2023-05-23T01:08:54.831Z,49.07
2023-05-23T01:11:35.309Z,50.40
2023-05-23T01:14:22.183Z,45.37
2023-05-23T01:17:11.392Z,54.47
2023-05-23T01:20:08.155Z,49.90
2023-05-23T01:23:01.469Z,49.40
2023-05-23T01:26:26.453Z,53.67
2023-05-23T01:29:13.699Z,51.20
2023-05-23T01:31:54.634Z,51.93
2023-05-23T01:34:30.362Z,50.30
2023-05-23T01:37:10.566Z,53.90
2023-05-23T01:39:43.017Z,53.90
2023-05-23T01:42:15.596Z,61.33
2023-05-23T01:44:48.154Z,56.40
2023-05-23T01:47:21.426Z,57.70
2023-05-23T01:49:55.664Z,62.20
2023-05-23T01:52:29.137Z,56.13
2023-05-23T01:55:02.363Z,61.87
2023-05-23T01:57:38.090Z,56.90
2023-05-23T02:00:12.382Z,63.43
2023-05-23T02:02:46.606Z,66.30
2023-05-23T02:05:18.812Z,65.93
2023-05-23T02:07:50.999Z,62.63
2023-05-23T02:10:23.296Z,60.90
2023-05-23T02:12:55.446Z,57.47
2023-05-23T02:15:27.464Z,57.07
2023-05-23T02:17:59.633Z,66.90
2023-05-23T02:20:34.038Z,60.57
2023-05-23T02:23:06.123Z,58.50
2023-05-23T02:25:39.059Z,56.77
2023-05-23T02:28:13.028Z,61.37
2023-05-23T02:30:45.536Z,64.83
2023-05-23T02:33:18.104Z,62.70
2023-05-23T02:35:51.548Z,64.87
2023-05-23T02:38:23.656Z,63.83
2023-05-23T02:40:57.807Z,62.00
2023-05-23T02:43:30.097Z,60.23
2023-05-23T02:46:02.152Z,59.80
2023-05-23T02:48:34.357Z,56.97
2023-05-23T02:51:06.938Z,62.83
2023-05-23T02:53:39.503Z,62.43
2023-05-23T02:56:13.520Z,64.67
2023-05-23T02:58:46.630Z,60.70
2023-05-23T03:01:18.921Z,60.20
2023-05-23T03:03:51.150Z,54.70
2023-05-23T03:06:23.253Z,62.87
2023-05-23T03:08:57.121Z,55.57
2023-05-23T03:11:30.045Z,57.43
2023-05-23T03:14:02.073Z,54.40
2023-05-23T03:16:34.392Z,51.37
2023-05-23T03:19:06.489Z,57.67
2023-05-23T03:21:39.194Z,53.20
2023-05-23T03:24:11.842Z,51.77
2023-05-23T03:26:44.238Z,57.73
2023-05-23T03:29:16.272Z,51.77
2023-05-23T03:31:48.283Z,51.70
2023-05-23T03:34:20.473Z,53.77
2023-05-23T03:36:54.781Z,53.00
2023-05-23T03:39:27.089Z,52.67
2023-05-23T03:41:59.291Z,49.50
2023-05-23T03:44:31.391Z,53.20
2023-05-23T03:47:03.572Z,53.53
2023-05-23T03:49:35.832Z,49.03
2023-05-23T03:52:08.121Z,50.63
2023-05-23T03:54:40.137Z,48.40
2023-05-23T03:57:12.752Z,49.73
2023-05-23T03:59:44.743Z,48.37
2023-05-23T04:02:17.021Z,51.63
2023-05-23T04:04:49.057Z,48.33
2023-05-23T04:07:22.931Z,49.97
2023-05-23T04:09:57.345Z,54.07
2023-05-23T04:12:30.705Z,50.97
2023-05-23T04:15:03.900Z,49.63
2023-05-23T04:17:39.066Z,49.17
2023-05-23T04:20:11.567Z,53.50
2023-05-23T04:22:44.175Z,47.60
2023-05-23T04:25:18.706Z,50.27
2023-05-23T04:27:51.073Z,51.03
2023-05-23T04:30:23.400Z,51.83
2023-05-23T04:32:58.246Z,48.03
2023-05-23T04:35:34.306Z,46.00
2023-05-23T04:38:10.225Z,46.50
2023-05-23T04:40:44.294Z,44.50
2023-05-23T04:43:16.437Z,48.57
2023-05-23T04:45:54.360Z,48.53
2023-05-23T04:48:27.618Z,46.50
2023-05-23T04:51:02.349Z,46.33
2023-05-23T04:53:41.044Z,42.37
2023-05-23T04:56:15.725Z,43.40
2023-05-23T04:58:49.337Z,52.63
2023-05-23T05:01:23.677Z,43.43
2023-05-23T05:03:56.648Z,45.00
2023-05-23T05:06:28.957Z,43.33
2023-05-23T05:09:01.917Z,44.63
2023-05-23T05:11:34.086Z,43.80
2023-05-23T05:14:12.298Z,47.37
2023-05-23T05:16:49.269Z,41.80
2023-05-23T05:19:22.594Z,44.90
2023-05-23T05:21:54.952Z,41.87
2023-05-23T05:24:29.343Z,45.90
2023-05-23T05:27:03.020Z,45.23
2023-05-23T05:29:36.661Z,42.57
2023-05-23T05:32:09.222Z,45.87
2023-05-23T05:34:43.320Z,43.53
2023-05-23T05:37:15.477Z,43.60
2023-05-23T05:39:47.760Z,45.03
2023-05-23T05:42:23.620Z,42.23
2023-05-23T05:44:56.071Z,43.60
2023-05-23T05:47:28.877Z,43.77
2023-05-23T05:50:01.758Z,41.20
2023-05-23T05:52:38.925Z,46.93
2023-05-23T05:55:12.630Z,44.93
2023-05-23T05:57:44.899Z,40.57
2023-05-23T06:00:19.144Z,47.90
2023-05-23T06:02:52.253Z,42.07
2023-05-23T06:05:28.132Z,42.80
2023-05-23T06:08:00.374Z,40.50
2023-05-23T06:10:32.873Z,44.83
2023-05-23T06:13:05.497Z,46.03
2023-05-23T06:15:37.683Z,42.03
2023-05-23T06:18:10.212Z,41.60
2023-05-23T06:20:42.618Z,41.53
2023-05-23T06:23:14.957Z,40.60
2023-05-23T06:25:47.089Z,43.80
2023-05-23T06:28:19.487Z,41.23
2023-05-23T06:30:51.566Z,40.37
2023-05-23T06:33:23.660Z,40.87
2023-05-23T06:35:55.798Z,40.20
2023-05-23T06:38:31.150Z,41.33
2023-05-23T06:41:07.436Z,40.10
2023-05-23T06:43:39.693Z,39.87
2023-05-23T06:46:12.029Z,40.17
2023-05-23T06:48:44.539Z,43.17
2023-05-23T06:51:16.794Z,39.80
2023-05-23T06:53:49.217Z,40.57
2023-05-23T06:56:22.557Z,39.67
2023-05-23T06:58:55.005Z,41.60
2023-05-23T07:01:27.340Z,39.10
2023-05-23T07:03:59.609Z,37.43
2023-05-23T07:06:32.918Z,37.83
2023-05-23T07:09:06.782Z,36.90
2023-05-23T07:11:41.025Z,34.97
2023-05-23T07:14:13.434Z,34.33
2023-05-23T07:16:46.670Z,31.53
2023-05-23T07:19:18.994Z,30.80
2023-05-23T07:21:51.501Z,29.73
2023-05-23T07:24:25.436Z,29.23
2023-05-23T07:26:57.887Z,28.27
2023-05-23T07:29:30.716Z,28.47
2023-05-23T07:32:03.328Z,30.53
2023-05-23T07:34:36.399Z,33.37
2023-05-23T07:37:08.955Z,31.27
2023-05-23T07:39:42.358Z,34.77
2023-05-23T07:42:14.708Z,34.00
2023-05-23T07:44:47.506Z,32.47
2023-05-23T07:47:19.933Z,30.73
2023-05-23T07:49:53.250Z,31.00
2023-05-23T07:52:25.632Z,29.80
2023-05-23T07:54:58.466Z,31.40
2023-05-23T07:57:31.800Z,27.90
2023-05-23T08:00:05.540Z,25.67
2023-05-23T08:02:38.770Z,26.40
2023-05-23T08:05:11.242Z,26.50
2023-05-23T08:07:43.427Z,27.00
2023-05-23T08:10:15.800Z,24.40
2023-05-23T08:12:48.135Z,25.13
2023-05-23T08:15:20.446Z,25.30
2023-05-23T08:17:57.470Z,25.80
2023-05-23T08:20:31.248Z,25.97
2023-05-23T08:23:03.626Z,24.03
2023-05-23T08:25:35.769Z,25.17
2023-05-23T08:28:08.061Z,23.73
2023-05-23T08:30:40.971Z,23.90
2023-05-23T08:33:13.633Z,22.73
2023-05-23T08:35:46.748Z,22.80
2023-05-23T08:38:22.132Z,23.27
2023-05-23T08:40:56.520Z,22.17
2023-05-23T08:43:32.012Z,22.53
2023-05-23T08:46:04.795Z,22.70
2023-05-23T08:48:38.954Z,21.50
2023-05-23T08:51:15.805Z,22.13
2023-05-23T08:53:51.647Z,22.30
2023-05-23T08:56:28.631Z,23.30
2023-05-23T08:59:01.197Z,22.13
2023-05-23T09:01:34.816Z,22.20
2023-05-23T09:04:08.767Z,21.40
2023-05-23T09:06:41.683Z,22.03
2023-05-23T09:09:14.047Z,23.03
2023-05-23T09:11:47.263Z,21.10
2023-05-23T09:14:20.021Z,21.13
2023-05-23T09:16:52.267Z,18.50
2023-05-23T09:19:24.800Z,20.90
2023-05-23T09:21:56.934Z,18.17
2023-05-23T09:24:39.484Z,17.67
2023-05-23T09:27:12.617Z,19.30
2023-05-23T09:29:47.478Z,17.60
2023-05-23T09:32:21.523Z,18.50
2023-05-23T09:35:00.721Z,18.43
2023-05-23T09:37:46.179Z,17.20
2023-05-23T09:40:18.627Z,18.33
2023-05-23T09:42:51.848Z,16.00
2023-05-23T09:45:30.636Z,16.03
2023-05-23T09:48:04.158Z,16.40
2023-05-23T09:50:45.732Z,15.70
2023-05-23T09:53:22.842Z,15.00
2023-05-23T09:55:58.242Z,16.63
2023-05-23T09:58:33.062Z,16.93
2023-05-23T10:01:10.112Z,16.50
2023-05-23T10:03:51.261Z,15.50
2023-05-23T10:06:40.236Z,16.17
2023-05-23T10:09:22.583Z,15.80
2023-05-23T10:12:32.983Z,15.60
2023-05-23T10:15:16.814Z,14.70
2023-05-23T10:17:52.607Z,14.77
2023-05-23T10:20:43.675Z,14.07
2023-05-23T10:23:19.457Z,13.17
2023-05-23T10:25:52.522Z,13.93
2023-05-23T10:28:27.283Z,12.97
2023-05-23T10:31:00.224Z,12.63
2023-05-23T10:33:40.195Z,12.90
2023-05-23T10:36:26.247Z,12.20
2023-05-23T10:39:16.117Z,11.90
2023-05-23T10:42:16.110Z,12.80
2023-05-23T10:44:52.664Z,12.53
2023-05-23T10:47:44.646Z,11.60
2023-05-23T10:50:34.472Z,11.50
2023-05-23T10:53:11.277Z,11.67
2023-05-23T10:55:49.389Z,12.03
2023-05-23T10:58:23.384Z,11.23
2023-05-23T11:00:59.691Z,10.70
2023-05-23T11:03:55.881Z,10.30
2023-05-23T11:06:43.120Z,9.77
2023-05-23T11:09:19.397Z,10.00
2023-05-23T11:12:05.474Z,10.43
2023-05-23T11:14:38.478Z,9.60
2023-05-23T11:17:32.176Z,11.30
2023-05-23T11:20:06.796Z,10.60
2023-05-23T11:22:40.264Z,12.97
2023-05-23T11:25:41.085Z,13.10
2023-05-23T11:28:17.444Z,13.10
2023-05-23T11:30:51.038Z,14.03
2023-05-23T11:33:23.437Z,12.97
2023-05-23T11:35:55.953Z,12.73
2023-05-23T11:38:28.334Z,14.00
2023-05-23T11:41:00.699Z,14.60
2023-05-23T11:43:32.920Z,13.10
2023-05-23T11:46:09.164Z,10.87
2023-05-23T11:48:45.755Z,11.63
2023-05-23T11:51:19.902Z,12.07
2023-05-23T11:53:52.596Z,10.23
2023-05-23T11:56:25.060Z,11.50
2023-05-23T11:58:57.937Z,12.53
2023-05-23T12:01:33.892Z,12.43
2023-05-23T12:04:13.895Z,11.27
2023-05-23T12:06:50.843Z,9.67
2023-05-23T12:09:23.366Z,9.60
2023-05-23T12:11:56.725Z,9.90
2023-05-23T12:14:29.413Z,10.13
2023-05-23T12:17:02.138Z,9.13
2023-05-23T12:19:36.037Z,9.60
2023-05-23T12:22:08.839Z,10.90
2023-05-23T12:24:48.912Z,9.07
2023-05-23T12:27:32.162Z,9.40
2023-05-23T12:30:10.891Z,8.63
2023-05-23T12:32:47.549Z,7.93
2023-05-23T12:35:19.879Z,7.70
2023-05-23T12:37:56.965Z,8.60
2023-05-23T12:40:32.759Z,8.83
2023-05-23T12:43:10.185Z,8.43
2023-05-23T12:45:43.587Z,8.37
2023-05-23T12:48:16.841Z,7.97
2023-05-23T12:50:49.105Z,9.97
2023-05-23T12:53:24.370Z,7.20
2023-05-23T12:55:57.814Z,7.50
2023-05-23T12:58:31.401Z,8.40
2023-05-23T13:01:04.443Z,7.37
2023-05-23T13:03:37.190Z,7.17
2023-05-23T13:06:09.759Z,7.30
2023-05-23T13:08:43.301Z,6.50
2023-05-23T13:11:16.090Z,7.43
2023-05-23T13:13:49.446Z,6.33
2023-05-23T13:16:22.507Z,7.03
2023-05-23T13:18:55.126Z,6.67
2023-05-23T13:21:27.802Z,6.67
2023-05-23T13:24:00.579Z,8.27
2023-05-23T13:26:32.931Z,7.53
2023-05-23T13:29:06.644Z,6.40
2023-05-23T13:31:39.073Z,6.87
2023-05-23T13:34:11.514Z,6.27
2023-05-23T13:36:44.299Z,6.13
2023-05-23T13:39:18.954Z,6.60
2023-05-23T13:41:54.172Z,6.20
2023-05-23T13:44:27.069Z,7.37
2023-05-23T13:47:12.965Z,5.67
2023-05-23T13:49:46.743Z,6.00
2023-05-23T13:52:20.407Z,5.97
2023-05-23T13:54:52.689Z,6.10
2023-05-23T13:57:24.964Z,5.97
2023-05-23T13:59:57.456Z,7.10
2023-05-23T14:02:32.197Z,7.17
2023-05-23T14:05:05.028Z,6.23
2023-05-23T14:07:39.199Z,6.30
2023-05-23T14:10:15.568Z,6.83
2023-05-23T14:12:48.851Z,6.30
2023-05-23T14:15:21.553Z,8.40
2023-05-23T14:17:55.608Z,5.97
2023-05-23T14:20:29.909Z,5.30
2023-05-23T14:23:02.856Z,5.90
2023-05-23T14:25:35.290Z,7.53
2023-05-23T14:28:08.210Z,5.83
2023-05-23T14:30:40.370Z,5.63
2023-05-23T14:33:12.825Z,5.57
2023-05-23T14:35:46.417Z,5.57
2023-05-23T14:38:19.618Z,6.40
2023-05-23T14:40:52.127Z,6.83
2023-05-23T14:43:26.055Z,5.80
2023-05-23T14:45:59.295Z,5.23
2023-05-23T14:48:32.607Z,5.77
2023-05-23T14:51:05.830Z,5.97
2023-05-23T14:53:38.410Z,5.73
2023-05-23T14:56:10.893Z,4.60
2023-05-23T14:58:46.031Z,5.07
2023-05-23T15:01:18.901Z,5.43
2023-05-23T15:03:51.332Z,5.77
2023-05-23T15:06:23.568Z,4.50
2023-05-23T15:08:57.046Z,5.07
2023-05-23T15:11:29.581Z,4.77
2023-05-23T15:14:03.728Z,4.57
2023-05-23T15:16:37.031Z,4.43
2023-05-23T15:19:09.405Z,4.10
2023-05-23T15:21:49.849Z,4.00
2023-05-23T15:24:23.415Z,6.20
2023-05-23T15:26:58.295Z,6.70
2023-05-23T15:29:35.865Z,7.30
2023-05-23T15:32:11.799Z,7.40
2023-05-23T15:34:44.466Z,5.30
2023-05-23T15:37:17.668Z,5.60
2023-05-23T15:39:49.941Z,6.77
2023-05-23T15:42:22.592Z,5.37
2023-05-23T15:44:54.699Z,6.60
2023-05-23T15:47:27.394Z,5.80
2023-05-23T15:49:59.698Z,5.40
2023-05-23T15:52:32.634Z,6.97
2023-05-23T15:55:05.846Z,8.03
2023-05-23T15:57:38.722Z,7.20
2023-05-23T16:00:11.452Z,5.37
2023-05-23T16:02:44.410Z,8.40
2023-05-23T16:05:16.897Z,7.23
2023-05-23T16:07:49.353Z,8.00
2023-05-23T16:10:23.482Z,8.13
2023-05-23T16:12:56.720Z,8.43
2023-05-23T16:15:29.001Z,7.43
2023-05-23T16:18:02.281Z,7.23
2023-05-23T16:20:35.926Z,7.07
2023-05-23T16:23:08.282Z,7.13
2023-05-23T16:25:40.696Z,7.40
2023-05-23T16:28:14.437Z,8.13
2023-05-23T16:30:48.533Z,8.33
2023-05-23T16:33:21.238Z,9.27
2023-05-23T16:35:53.661Z,9.33
2023-05-23T16:38:27.288Z,8.77
2023-05-23T16:40:59.735Z,9.10
2023-05-23T16:43:32.305Z,9.10
2023-05-23T16:46:05.301Z,9.10
2023-05-23T16:48:38.046Z,10.20
2023-05-23T16:51:10.543Z,10.63
2023-05-23T16:53:43.234Z,9.40
2023-05-23T16:56:16.245Z,10.10
2023-05-23T16:58:49.258Z,8.97
2023-05-23T17:01:22.761Z,10.10
2023-05-23T17:03:55.651Z,9.50
2023-05-23T17:06:28.552Z,9.73
2023-05-23T17:09:02.937Z,8.63
2023-05-23T17:11:36.120Z,8.40
2023-05-23T17:14:08.553Z,8.57
2023-05-23T17:16:41.501Z,8.03
2023-05-23T17:19:14.514Z,7.00
2023-05-23T17:21:47.122Z,6.63
2023-05-23T17:24:19.948Z,6.90
2023-05-23T17:26:52.569Z,6.70
2023-05-23T17:29:25.428Z,6.70
2023-05-23T17:31:58.538Z,6.70
2023-05-23T17:34:31.815Z,7.00
2023-05-23T17:37:04.549Z,5.90
2023-05-23T17:39:37.377Z,6.10
2023-05-23T17:42:10.810Z,5.37
2023-05-23T17:44:44.725Z,5.43
2023-05-23T17:47:18.708Z,5.73
2023-05-23T17:49:52.266Z,5.23
2023-05-23T17:52:25.488Z,5.60
2023-05-23T17:54:58.944Z,4.97
2023-05-23T17:57:31.929Z,5.70
2023-05-23T18:00:06.324Z,6.30
2023-05-23T18:02:39.604Z,8.20
2023-05-23T18:05:12.877Z,6.00
2023-05-23T18:07:45.980Z,6.03
2023-05-23T18:10:19.234Z,6.20
2023-05-23T18:12:52.867Z,7.03
2023-05-23T18:15:25.866Z,7.00
2023-05-23T18:17:58.403Z,6.27
2023-05-23T18:20:31.173Z,6.70
2023-05-23T18:23:03.891Z,5.90
2023-05-23T18:25:36.877Z,6.33
2023-05-23T18:28:10.086Z,5.43
2023-05-23T18:30:43.332Z,5.73
2023-05-23T18:33:16.843Z,5.20
2023-05-23T18:35:51.401Z,4.97
2023-05-23T18:38:23.919Z,16.97
2023-05-23T18:40:57.085Z,5.60
2023-05-23T18:43:30.017Z,5.20
2023-05-23T18:46:03.505Z,6.67
2023-05-23T18:48:36.815Z,6.23
2023-05-23T18:51:09.784Z,5.07
2023-05-23T18:53:43.749Z,5.10
2023-05-23T18:56:17.155Z,4.40
2023-05-23T18:58:51.680Z,4.43
2023-05-23T19:01:24.235Z,4.37
2023-05-23T19:03:57.936Z,4.03
2023-05-23T19:06:32.245Z,4.27
2023-05-23T19:09:10.069Z,3.73
2023-05-23T19:11:42.915Z,3.50
2023-05-23T19:14:15.632Z,4.23
2023-05-23T19:16:47.807Z,4.27
2023-05-23T19:19:20.828Z,6.50
2023-05-23T19:21:53.184Z,4.50
2023-05-23T19:24:25.549Z,4.07
2023-05-23T19:26:58.309Z,4.53
2023-05-23T19:29:31.166Z,3.97
2023-05-23T19:32:03.532Z,4.37
2023-05-23T19:34:36.356Z,4.10
2023-05-23T19:37:08.884Z,3.97
2023-05-23T19:39:45.774Z,4.70
2023-05-23T19:42:19.292Z,4.60
2023-05-23T19:44:52.467Z,4.10
2023-05-23T19:47:24.788Z,3.97
2023-05-23T19:49:57.454Z,4.27
2023-05-23T19:52:30.243Z,4.27
2023-05-23T19:55:04.165Z,5.23
2023-05-23T19:57:37.764Z,4.40
2023-05-23T20:00:11.001Z,4.97
2023-05-23T20:02:47.601Z,4.33
2023-05-23T20:05:22.841Z,4.50
2023-05-23T20:07:56.286Z,4.80
2023-05-23T20:10:29.011Z,4.60
2023-05-23T20:13:01.567Z,4.93
2023-05-23T20:15:39.992Z,5.10
2023-05-23T20:18:13.362Z,4.53
2023-05-23T20:20:46.258Z,6.70
2023-05-23T20:23:18.937Z,4.93
2023-05-23T20:25:52.467Z,4.37
2023-05-23T20:28:25.712Z,5.00
2023-05-23T20:30:58.589Z,4.97
2023-05-23T20:33:30.932Z,4.73
2023-05-23T20:36:05.669Z,5.18
2023-05-23T20:38:39.341Z,4.63
2023-05-23T20:41:11.949Z,4.80
2023-05-23T20:43:45.762Z,5.50
2023-05-23T20:46:19.570Z,4.72
2023-05-23T20:48:52.166Z,5.03
2023-05-23T20:51:24.336Z,5.60
2023-05-23T20:53:56.626Z,5.10
2023-05-23T20:56:29.448Z,5.30
2023-05-23T20:59:02.627Z,5.50
2023-05-23T21:01:35.105Z,4.83
2023-05-23T21:04:08.037Z,4.60
2023-05-23T21:06:40.167Z,6.10
2023-05-23T21:09:13.752Z,5.20
2023-05-23T21:11:47.487Z,5.28
2023-05-23T21:14:19.560Z,5.10
2023-05-23T21:16:52.124Z,4.28
2023-05-23T21:19:24.395Z,4.57
2023-05-23T21:21:56.688Z,4.70
2023-05-23T21:24:29.666Z,4.72
2023-05-23T21:27:02.169Z,5.50
2023-05-23T21:29:35.470Z,5.15
2023-05-23T21:32:07.715Z,7.63
2023-05-23T21:34:40.724Z,4.70
2023-05-23T21:37:13.897Z,4.82
2023-05-23T21:39:51.949Z,4.55
2023-05-23T21:42:25.551Z,5.20
2023-05-23T21:44:58.022Z,4.95
2023-05-23T21:47:30.406Z,4.88
2023-05-23T21:50:04.297Z,4.45
2023-05-23T21:52:37.118Z,5.05
2023-05-23T21:55:09.420Z,5.47
2023-05-23T21:57:41.698Z,4.90
2023-05-23T22:00:15.063Z,5.22
2023-05-23T22:02:49.931Z,7.07
2023-05-23T22:05:22.315Z,5.63
2023-05-23T22:07:54.449Z,4.88
2023-05-23T22:10:27.079Z,4.85
2023-05-23T22:12:59.142Z,5.15
2023-05-23T22:15:32.595Z,5.15
2023-05-23T22:18:06.677Z,4.63
2023-05-23T22:20:38.882Z,4.60
2023-05-23T22:23:16.726Z,5.15
2023-05-23T22:25:49.161Z,5.22
2023-05-23T22:28:21.375Z,5.60
2023-05-23T22:30:53.768Z,5.63
2023-05-23T22:33:25.981Z,5.15
2023-05-23T22:35:58.234Z,6.10
2023-05-23T22:38:31.381Z,5.18
2023-05-23T22:41:04.830Z,4.90
2023-05-23T22:43:37.268Z,4.90
2023-05-23T22:46:09.482Z,4.40
2023-05-23T22:48:42.021Z,7.13
2023-05-23T22:51:14.593Z,5.03
2023-05-23T22:53:47.533Z,4.85
2023-05-23T22:56:19.800Z,6.20
2023-05-23T22:58:53.386Z,5.97
2023-05-23T23:01:25.488Z,5.60
2023-05-23T23:03:57.706Z,5.50
2023-05-23T23:06:29.940Z,4.93
2023-05-23T23:09:02.180Z,4.75
2023-05-23T23:11:35.932Z,5.20
2023-05-23T23:14:08.136Z,5.00
2023-05-23T23:16:40.211Z,5.07
2023-05-23T23:19:13.508Z,4.80
2023-05-23T23:21:46.263Z,4.90
2023-05-23T23:24:18.454Z,4.95
2023-05-23T23:26:50.789Z,5.13
2023-05-23T23:29:22.923Z,6.05
2023-05-23T23:31:57.487Z,5.20
2023-05-23T23:34:30.654Z,5.88
2023-05-23T23:37:02.706Z,5.30
2023-05-23T23:39:35.034Z,5.53
2023-05-23T23:42:07.255Z,6.72
2023-05-23T23:44:39.389Z,5.00
2023-05-23T23:47:11.539Z,5.57
2023-05-23T23:49:43.660Z,5.78
2023-05-23T23:52:16.273Z,5.70
2023-05-23T23:54:48.653Z,4.70
2023-05-23T23:57:20.732Z,5.55
2023-05-23T23:59:52.957Z,4.97
